Thursday, January 17, 2019, 6:56 AM EST
Back to Local

KJYO, Leesburg / Godfrey

Location: Leesburg, VA, United States Lat: 39.083
Local Time: 6:56 AM EST (11:56 GMT) Lon: -77.567
Time Zone: US/Eastern Elev: 390 ft

Show me the last for .
Show Decoded

2019-01-17 06:35 METAR KJYO 171135Z AUTO 00000KT 10SM CLR 01/M02 A3033 RMK AO2 =
2019-01-17 06:15 METAR KJYO 171115Z AUTO 01003KT 10SM SCT044 01/M02 A3032 RMK AO2 =
2019-01-17 05:55 METAR KJYO 171055Z AUTO 00000KT 10SM OVC044 01/M01 A3032 RMK AO2 =
2019-01-17 05:35 METAR KJYO 171035Z AUTO 28003KT 10SM OVC044 01/M01 A3032 RMK AO2 =
2019-01-17 05:15 METAR KJYO 171015Z AUTO 00000KT 10SM OVC040 02/M02 A3032 RMK AO2 =
2019-01-17 04:55 METAR KJYO 170955Z AUTO 00000KT 10SM OVC040 02/M02 A3032 RMK AO2 =
2019-01-17 04:35 METAR KJYO 170935Z AUTO 28004KT 10SM OVC040 01/M01 A3032 RMK AO2 =
2019-01-17 04:15 METAR KJYO 170915Z AUTO 27003KT 10SM OVC040 01/M01 A3032 RMK AO2 =
2019-01-17 03:55 METAR KJYO 170855Z AUTO 26004KT 10SM OVC040 02/M02 A3032 RMK AO2 =
2019-01-17 03:35 METAR KJYO 170835Z AUTO 27005KT 10SM OVC040 02/M02 A3033 RMK AO2 =
2019-01-17 03:15 METAR KJYO 170815Z AUTO 26004KT 10SM OVC042 02/M02 A3033 RMK AO2 =
2019-01-17 02:55 METAR KJYO 170755Z AUTO 26004KT 10SM OVC042 02/M02 A3033 RMK AO2 =
2019-01-17 02:35 METAR KJYO 170735Z AUTO 24003KT 10SM OVC042 02/M02 A3032 RMK AO2 =
2019-01-17 02:15 METAR KJYO 170715Z AUTO 00000KT 10SM OVC042 02/M02 A3032 RMK AO2 =
2019-01-17 01:55 METAR KJYO 170655Z AUTO 29003KT 10SM OVC044 01/M01 A3031 RMK AO2 =
2019-01-17 01:35 METAR KJYO 170635Z AUTO 29003KT 10SM OVC042 02/M02 A3030 RMK AO2 =
2019-01-17 01:15 METAR KJYO 170615Z AUTO 00000KT 10SM OVC040 02/M02 A3030 RMK AO2 =
2019-01-17 00:55 METAR KJYO 170555Z AUTO 31004KT 10SM OVC042 02/M02 A3031 RMK AO2 =
2019-01-17 00:35 METAR KJYO 170535Z AUTO 32006KT 10SM OVC042 02/M02 A3031 RMK AO2 =
2019-01-17 00:15 METAR KJYO 170515Z AUTO 31008KT 10SM OVC042 02/M02 A3031 RMK AO2 =
2019-01-16 23:55 METAR KJYO 170455Z AUTO 32007KT 10SM OVC042 02/M02 A3031 RMK AO2 =
2019-01-16 23:35 METAR KJYO 170435Z AUTO 32007KT 10SM OVC042 03/M02 A3032 RMK AO2 =
2019-01-16 23:15 METAR KJYO 170415Z AUTO 32005KT 10SM OVC042 03/M01 A3032 RMK AO2 =
2019-01-16 22:55 METAR KJYO 170355Z AUTO 31003KT 10SM OVC042 03/M01 A3031 RMK AO2 =
2019-01-16 22:35 METAR KJYO 170335Z AUTO 34005KT 10SM OVC042 03/M02 A3031 RMK AO2 =
2019-01-16 22:10 METAR KJYO 170310Z AUTO 35004KT 10SM OVC040 03/M02 A3030 RMK AO2 =
2019-01-16 21:55 METAR KJYO 170255Z AUTO 35003KT 10SM OVC040 03/M01 A3030 RMK AO2 =
2019-01-16 21:35 METAR KJYO 170235Z AUTO 35004KT 10SM OVC040 03/M01 A3028 RMK AO2 =
2019-01-16 21:15 METAR KJYO 170215Z AUTO 35007KT 10SM OVC040 03/M01 A3027 RMK AO2 =
2019-01-16 20:55 METAR KJYO 170155Z AUTO 36006KT 10SM OVC042 03/M01 A3027 RMK AO2 P0001 =
2019-01-16 20:35 METAR KJYO 170135Z AUTO 33009KT 10SM OVC042 03/M01 A3026 RMK AO2 P0001 =
2019-01-16 20:15 METAR KJYO 170115Z AUTO 34007KT 310V010 10SM OVC040 03/00 A3026 RMK AO2 =
2019-01-16 19:55 METAR KJYO 170055Z AUTO 33007KT 10SM OVC040 04/00 A3026 RMK AO2 P0001 =
2019-01-16 19:35 METAR KJYO 170035Z AUTO 31009KT 10SM OVC042 03/00 A3025 RMK AO2 P0001 =
2019-01-16 19:15 METAR KJYO 170015Z AUTO 29007KT 10SM OVC042 04/00 A3025 RMK AO2 =
2019-01-16 18:55 METAR KJYO 162355Z AUTO 29006KT 10SM OVC042 04/M01 A3024 RMK AO2 P0002 =
2019-01-16 18:35 METAR KJYO 162335Z AUTO 31006KT 10SM OVC040 04/00 A3023 RMK AO2 P0002 =
2019-01-16 18:15 METAR KJYO 162315Z AUTO 30012G21KT 10SM OVC040 04/00 A3022 RMK AO2 P0001 =
2019-01-16 17:55 METAR KJYO 162255Z AUTO 32014G18KT 10SM OVC038 04/00 A3021 RMK AO2 P0001 =
2019-01-16 17:35 METAR KJYO 162235Z AUTO 30016G21KT 10SM OVC038 04/00 A3021 RMK AO2 P0001 =
2019-01-16 17:15 METAR KJYO 162215Z AUTO 31014KT 10SM OVC038 04/00 A3020 RMK AO2 =
2019-01-16 16:55 METAR KJYO 162155Z AUTO 31017G27KT 10SM OVC038 04/00 A3019 RMK AO2 P0002 =
2019-01-16 16:35 METAR KJYO 162135Z AUTO 30018G23KT 10SM OVC038 04/00 A3019 RMK AO2 P0002 =
2019-01-16 16:15 METAR KJYO 162115Z AUTO 30019G25KT 10SM OVC038 04/00 A3018 RMK AO2 P0001 =
2019-01-16 15:55 METAR KJYO 162055Z AUTO 31017G25KT 10SM OVC040 04/00 A3017 RMK AO2 P0003 =
2019-01-16 15:35 METAR KJYO 162035Z AUTO 31021G26KT 10SM BKN040 04/00 A3016 RMK AO2 P0002 =
2019-01-16 15:15 METAR KJYO 162015Z AUTO 31014G21KT 10SM BKN042 05/00 A3016 RMK AO2 P0001 =
2019-01-16 14:55 METAR KJYO 161955Z AUTO 32013G18KT 10SM OVC040 04/00 A3016 RMK AO2 P0004 =
2019-01-16 14:35 METAR KJYO 161935Z AUTO 30009G16KT 10SM OVC040 05/00 A3015 RMK AO2 P0003 =
2019-01-16 14:15 METAR KJYO 161915Z AUTO 31011KT 10SM OVC038 05/M01 A3014 RMK AO2 P0001 =
2019-01-16 13:55 METAR KJYO 161855Z AUTO 31010KT 10SM OVC038 05/00 A3014 RMK AO2 P0005 =
2019-01-16 13:35 METAR KJYO 161835Z AUTO 32009G18KT 10SM OVC038 05/00 A3014 RMK AO2 P0003 =
2019-01-16 13:15 METAR KJYO 161815Z AUTO 31009G14KT 10SM OVC038 05/M01 A3014 RMK AO2 P0001 =
2019-01-16 12:55 METAR KJYO 161755Z AUTO 32011G19KT 10SM OVC038 04/M01 A3014 RMK AO2 P0003 =
2019-01-16 12:35 METAR KJYO 161735Z AUTO 32010G17KT 10SM OVC038 04/00 A3014 RMK AO2 P0002 =
2019-01-16 12:15 METAR KJYO 161715Z AUTO 31007KT 280V350 10SM OVC036 04/00 A3015 RMK AO2 =
2019-01-16 11:55 METAR KJYO 161655Z AUTO 28005KT 10SM OVC036 03/00 A3016 RMK AO2 P0001 =
2019-01-16 11:35 METAR KJYO 161635Z AUTO 17003KT 10SM OVC034 02/00 A3017 RMK AO2 =
2019-01-16 11:15 METAR KJYO 161615Z AUTO 00000KT 10SM OVC034 02/00 A3018 RMK AO2 =
2019-01-16 10:55 METAR KJYO 161555Z AUTO 23003KT 10SM OVC034 01/M01 A3018 RMK AO2 =
2019-01-16 10:35 METAR KJYO 161535Z AUTO 27004KT 10SM OVC034 02/M01 A3018 RMK AO2 =
2019-01-16 10:15 METAR KJYO 161515Z AUTO 00000KT 10SM OVC032 00/M01 A3018 RMK AO2 =
2019-01-16 09:55 METAR KJYO 161455Z AUTO 00000KT 10SM OVC028 M01/M02 A3017 RMK AO2 =
2019-01-16 09:35 METAR KJYO 161435Z AUTO 22003KT 10SM OVC028 M01/M02 A3017 RMK AO2 =
2019-01-16 09:15 METAR KJYO 161415Z AUTO 00000KT 10SM OVC028 M03/M03 A3016 RMK AO2 =
2019-01-16 08:55 METAR KJYO 161355Z AUTO 24003KT 10SM OVC028 M03/M04 A3015 RMK AO2 =
2019-01-16 08:35 METAR KJYO 161335Z AUTO 00000KT 10SM OVC030 M04/M04 A3015 RMK AO2 =
2019-01-16 08:15 METAR KJYO 161315Z AUTO 00000KT 10SM OVC032 M04/M05 A3013 RMK AO2 =
2019-01-16 07:55 METAR KJYO 161255Z AUTO 00000KT 10SM OVC034 M04/M05 A3014 RMK AO2 =
2019-01-16 07:35 METAR KJYO 161235Z AUTO 22004KT 10SM SCT031 BKN037 M08/M08 A3013 RMK AO2 =
2019-01-16 07:15 METAR KJYO 161215Z AUTO 24003KT 10SM SCT039 M08/M08 A3013 RMK AO2 =

Support USWX by starting your Amazon purchase here.